KVGT/VGT METAR and TAF weather

Enter ICAO airport designator
Station Type Date Time Source
KVGT METAR 2020/07/09 23:53 UTC NOAA

KVGT 092353Z 20012G18KT 10SM CLR 42/M16 A2979 RMK AO2 SLP071 T04171156 10422 20356 56012


Station Type Date Time Source
KVGT Decoded METAR 2020/07/09 23:53 UTC NOAA

NORTH LAS VEGAS, NV, United States (KVGT) 36-12N 115-11W
Jul 09, 2020 - 07:53 PM EDT / 2020.07.09 2353 UTC
Wind: from the SSW (200 degrees) at 14 MPH (12 KT) gusting to 21 MPH (18 KT):0
Visibility: 10 mile(s):0
Sky conditions: clear
Temperature: 107.1 F (41.7 C)
Dew Point: 3.9 F (-15.6 C)
Relative Humidity: 2%
Pressure (altimeter): 29.79 in. Hg (1008 hPa)
Pressure tendency: 0.04 inches (1.2 hPa) lower than three hours ago
ob: KVGT 092353Z 20012G18KT 10SM CLR 42/M16 A2979 RMK AO2 SLP071 T04171156 10422 20356 56012
cycle: 0

Station Type Date Time Source
KVGT TAF 2020/07/09 18:22 UTC NOAA

TAF KVGT 091720Z 0918/1018 VRB05KT P6SM SKC
FM091900 16011KT P6SM SKC
FM092200 20013G21KT P6SM SKC
FM100200 22006KT P6SM SKC
FM100900 VRB05KT P6SM SKC

Example: see airport list